Time;durP1;ratioP1;P1;durP2;ratioP2;P2;SDS_P1;SDS_P2;PMS_P1;PMS_P2;Temp;Humidity;BMP_temperature;BMP_pressure;BME280_temperature;BME280_humidity;BME280_pressure;Samples;Min_cycle;Max_cycle;Signal;HPM_P1;HPM_P2
2023/08/01 00:01:19;;;;;;;11.88;5.50;;;;;;;;;;4997726;28;20042;-49
2023/08/01 00:03:44;;;;;;;11.88;5.30;;;;;;;;;;4997164;28;20443;-46
2023/08/01 00:06:09;;;;;;;8.15;5.03;;;;;;;;;;4994254;28;20042;-46
2023/08/01 00:08:35;;;;;;;11.35;5.40;;;;;;;;;;4997706;28;20046;-48
2023/08/01 00:11:00;;;;;;;9.07;4.93;;;;;;;;;;4989432;28;20042;-48
2023/08/01 00:13:26;;;;;;;14.93;5.18;;;;;;;;;;4992471;28;20022;-52
2023/08/01 00:15:51;;;;;;;10.45;5.60;;;;;;;;;;4983619;28;20463;-47
2023/08/01 00:18:16;;;;;;;13.43;5.55;;;;;;;;;;4995721;28;20026;-45
2023/08/01 00:20:42;;;;;;;8.25;5.10;;;;;;;;;;4994789;28;20034;-45
2023/08/01 00:23:07;;;;;;;9.95;5.00;;;;;;;;;;4995063;28;20499;-46
2023/08/01 00:25:33;;;;;;;9.65;5.65;;;;;;;;;;4996892;28;20031;-47
2023/08/01 00:27:58;;;;;;;7.05;4.68;;;;;;;;;;4996732;28;20030;-47
2023/08/01 00:30:24;;;;;;;11.45;5.15;;;;;;;;;;4995405;28;20070;-48
2023/08/01 00:32:49;;;;;;;10.27;5.00;;;;;;;;;;4997837;28;20045;-50
2023/08/01 00:35:16;;;;;;;10.90;5.05;;;;;;;;;;4994703;28;20136;-47
2023/08/01 00:37:41;;;;;;;12.77;4.95;;;;;;;;;;4997725;28;20045;-49
2023/08/01 00:40:07;;;;;;;11.68;5.38;;;;;;;;;;4992119;28;20038;-50
2023/08/01 00:42:36;;;;;;;13.70;5.40;;;;;;;;;;4996195;28;20057;-50
2023/08/01 00:45:01;;;;;;;6.55;4.80;;;;;;;;;;4996617;28;20060;-51
2023/08/01 00:47:27;;;;;;;12.43;5.40;;;;;;;;;;4993975;28;20105;-48
2023/08/01 00:49:52;;;;;;;13.32;5.68;;;;;;;;;;4995552;28;20030;-45
2023/08/01 00:52:18;;;;;;;10.15;5.20;;;;;;;;;;4995583;28;20069;-45
2023/08/01 00:54:43;;;;;;;10.40;5.03;;;;;;;;;;4996456;28;20034;-49
2023/08/01 00:57:09;;;;;;;13.77;5.43;;;;;;;;;;4993284;28;20559;-48
2023/08/01 00:59:35;;;;;;;19.48;6.00;;;;;;;;;;4990028;28;20079;-46
2023/08/01 01:02:01;;;;;;;17.10;5.25;;;;;;;;;;4996627;28;20113;-47
2023/08/01 01:04:27;;;;;;;11.63;5.30;;;;;;;;;;4994421;28;20038;-45
2023/08/01 01:07:02;;;;;;;7.35;4.70;;;;;;;;;;4995313;28;20042;-46
2023/08/01 01:09:31;;;;;;;9.77;4.53;;;;;;;;;;4995441;28;20030;-45
2023/08/01 01:11:57;;;;;;;13.52;5.20;;;;;;;;;;4994203;28;20496;-46
2023/08/01 01:14:22;;;;;;;14.70;5.65;;;;;;;;;;4997174;28;20034;-48
2023/08/01 01:16:48;;;;;;;17.25;5.60;;;;;;;;;;4994316;28;20455;-50
2023/08/01 01:19:13;;;;;;;10.10;4.78;;;;;;;;;;4996463;28;20405;-47
2023/08/01 01:21:41;;;;;;;13.02;5.68;;;;;;;;;;5008173;28;20038;-47
2023/08/01 01:24:09;;;;;;;8.55;5.38;;;;;;;;;;4993441;28;20042;-48
2023/08/01 01:26:36;;;;;;;9.50;4.93;;;;;;;;;;4995585;28;20050;-47
2023/08/01 01:29:04;;;;;;;17.10;5.88;;;;;;;;;;4983461;28;20503;-50
2023/08/01 01:31:30;;;;;;;7.82;4.97;;;;;;;;;;4993540;28;20034;-51
2023/08/01 01:33:56;;;;;;;10.77;5.53;;;;;;;;;;4995916;28;20033;-48
2023/08/01 01:36:22;;;;;;;12.75;4.70;;;;;;;;;;4989654;28;20481;-49
2023/08/01 01:38:47;;;;;;;8.55;5.25;;;;;;;;;;4986924;28;20026;-46
2023/08/01 01:41:13;;;;;;;11.80;4.93;;;;;;;;;;4995937;28;20113;-47
2023/08/01 01:43:38;;;;;;;12.30;5.30;;;;;;;;;;4994178;28;20041;-48
2023/08/01 01:46:04;;;;;;;11.75;5.53;;;;;;;;;;4995224;28;20045;-48
2023/08/01 01:48:29;;;;;;;11.43;5.30;;;;;;;;;;4986868;28;20026;-47
2023/08/01 01:50:54;;;;;;;12.07;5.57;;;;;;;;;;4995143;28;20042;-45
2023/08/01 01:53:20;;;;;;;14.10;5.50;;;;;;;;;;4995554;28;20032;-48
2023/08/01 01:55:45;;;;;;;11.18;5.38;;;;;;;;;;4993381;28;20057;-50
2023/08/01 01:58:11;;;;;;;14.98;5.57;;;;;;;;;;4992352;28;20583;-45
2023/08/01 02:00:36;;;;;;;11.50;6.15;;;;;;;;;;4984200;28;20034;-44
2023/08/01 02:03:02;;;;;;;10.82;5.78;;;;;;;;;;4994935;28;20113;-50
2023/08/01 02:05:29;;;;;;;10.10;5.70;;;;;;;;;;4992566;28;20384;-45
2023/08/01 02:07:54;;;;;;;9.45;5.28;;;;;;;;;;4994145;28;20056;-45
2023/08/01 02:10:19;;;;;;;12.32;6.00;;;;;;;;;;4976235;28;20125;-49
2023/08/01 02:12:45;;;;;;;10.20;5.38;;;;;;;;;;4993849;28;20130;-50
2023/08/01 02:15:10;;;;;;;13.13;5.32;;;;;;;;;;4991611;28;20051;-47
2023/08/01 02:17:36;;;;;;;13.45;5.55;;;;;;;;;;4986220;28;20023;-51
2023/08/01 02:20:01;;;;;;;14.45;6.00;;;;;;;;;;4995712;28;20046;-48
2023/08/01 02:22:27;;;;;;;13.98;5.05;;;;;;;;;;4993618;28;20046;-51
2023/08/01 02:24:52;;;;;;;12.18;6.07;;;;;;;;;;4992126;28;20026;-51
2023/08/01 02:27:18;;;;;;;10.25;5.13;;;;;;;;;;4995197;28;20033;-52
2023/08/01 02:29:44;;;;;;;13.60;5.57;;;;;;;;;;4995301;28;20038;-47
2023/08/01 02:32:09;;;;;;;11.68;5.30;;;;;;;;;;4988726;28;20034;-49
2023/08/01 02:34:35;;;;;;;11.40;5.15;;;;;;;;;;4996170;28;20034;-50
2023/08/01 02:37:00;;;;;;;16.98;5.55;;;;;;;;;;4995767;28;20055;-48
2023/08/01 02:39:25;;;;;;;11.65;5.53;;;;;;;;;;4993727;28;20097;-48
2023/08/01 02:41:51;;;;;;;13.40;6.00;;;;;;;;;;4977575;28;20050;-50
2023/08/01 02:44:16;;;;;;;15.15;5.95;;;;;;;;;;4995084;28;20030;-52
2023/08/01 02:46:42;;;;;;;7.82;5.00;;;;;;;;;;4990417;28;20085;-50
2023/08/01 02:49:07;;;;;;;7.88;5.00;;;;;;;;;;4994842;28;20030;-50
2023/08/01 02:51:32;;;;;;;11.98;5.50;;;;;;;;;;4996467;28;20041;-47
2023/08/01 02:53:58;;;;;;;14.77;5.20;;;;;;;;;;4992301;28;20112;-51
2023/08/01 02:56:23;;;;;;;10.82;5.95;;;;;;;;;;4987061;28;20149;-49
2023/08/01 02:58:51;;;;;;;11.25;5.93;;;;;;;;;;4996387;28;20033;-48
2023/08/01 03:01:17;;;;;;;12.90;5.45;;;;;;;;;;4986426;28;20082;-45
2023/08/01 03:03:42;;;;;;;11.63;5.55;;;;;;;;;;4990748;28;20035;-46
2023/08/01 03:06:07;;;;;;;7.53;5.30;;;;;;;;;;4990875;28;20544;-44
2023/08/01 03:08:33;;;;;;;8.98;5.10;;;;;;;;;;4999448;28;20030;-44
2023/08/01 03:10:59;;;;;;;8.93;5.07;;;;;;;;;;4996899;28;20093;-44
2023/08/01 03:13:24;;;;;;;10.60;5.18;;;;;;;;;;4997851;28;20042;-47
2023/08/01 03:15:49;;;;;;;8.55;4.82;;;;;;;;;;4989291;28;20414;-47
2023/08/01 03:18:15;;;;;;;11.80;4.60;;;;;;;;;;4986125;28;20423;-45
2023/08/01 03:20:40;;;;;;;10.75;5.25;;;;;;;;;;4988397;28;20490;-46
2023/08/01 03:23:06;;;;;;;7.75;5.22;;;;;;;;;;4997466;28;20611;-47
2023/08/01 03:25:32;;;;;;;10.80;5.18;;;;;;;;;;4995692;28;20042;-45
2023/08/01 03:27:57;;;;;;;8.77;4.53;;;;;;;;;;4988072;28;20038;-47
2023/08/01 03:30:23;;;;;;;9.45;5.22;;;;;;;;;;4982645;28;20038;-48
2023/08/01 03:32:48;;;;;;;6.18;4.43;;;;;;;;;;4998377;28;20026;-48
2023/08/01 03:35:14;;;;;;;8.13;5.20;;;;;;;;;;4996654;28;20042;-50
2023/08/01 03:37:42;;;;;;;9.63;5.00;;;;;;;;;;4997217;28;20033;-48
2023/08/01 03:40:11;;;;;;;6.70;4.70;;;;;;;;;;4991823;28;20400;-50
2023/08/01 03:42:36;;;;;;;8.98;5.35;;;;;;;;;;4996190;28;20054;-47
2023/08/01 03:45:02;;;;;;;7.38;5.10;;;;;;;;;;4996475;28;20052;-49
2023/08/01 03:47:28;;;;;;;8.43;5.25;;;;;;;;;;4997736;28;20033;-49
2023/08/01 03:49:53;;;;;;;9.35;5.97;;;;;;;;;;4994037;28;20038;-49
2023/08/01 03:52:19;;;;;;;6.53;4.78;;;;;;;;;;4998440;28;20469;-48
2023/08/01 03:54:44;;;;;;;6.32;4.95;;;;;;;;;;4991474;28;20388;-49
2023/08/01 03:57:10;;;;;;;11.13;4.93;;;;;;;;;;4998382;28;20088;-48
2023/08/01 03:59:36;;;;;;;11.63;5.20;;;;;;;;;;4995847;28;20535;-47
2023/08/01 04:02:01;;;;;;;6.72;4.63;;;;;;;;;;4997551;28;20058;-49
2023/08/01 04:04:26;;;;;;;18.95;5.22;;;;;;;;;;4998334;28;20044;-52
2023/08/01 04:06:52;;;;;;;9.07;5.35;;;;;;;;;;4996010;28;20543;-50
2023/08/01 04:09:17;;;;;;;10.13;5.55;;;;;;;;;;4994549;28;20079;-50
2023/08/01 04:11:43;;;;;;;8.10;5.32;;;;;;;;;;4985392;28;20126;-47
2023/08/01 04:14:08;;;;;;;9.07;5.20;;;;;;;;;;4994724;28;20072;-45
2023/08/01 04:16:34;;;;;;;19.70;5.53;;;;;;;;;;4995927;28;20619;-45
2023/08/01 04:18:59;;;;;;;11.18;4.78;;;;;;;;;;4998103;28;20088;-47
2023/08/01 04:21:25;;;;;;;10.35;5.78;;;;;;;;;;4994195;28;20034;-44
2023/08/01 04:23:50;;;;;;;9.40;5.35;;;;;;;;;;4996723;28;20499;-47
2023/08/01 04:26:16;;;;;;;9.45;4.88;;;;;;;;;;4987776;28;20065;-44
2023/08/01 04:28:41;;;;;;;13.32;5.30;;;;;;;;;;4993067;28;20803;-48
2023/08/01 04:31:07;;;;;;;10.20;5.95;;;;;;;;;;4994926;28;20034;-45
2023/08/01 04:33:32;;;;;;;8.98;5.20;;;;;;;;;;4985902;28;20088;-47
2023/08/01 04:35:57;;;;;;;10.55;5.68;;;;;;;;;;4981531;28;20731;-45
2023/08/01 04:38:23;;;;;;;13.35;5.90;;;;;;;;;;4995497;28;20030;-44
2023/08/01 04:40:48;;;;;;;17.42;4.72;;;;;;;;;;4995030;28;20126;-49
2023/08/01 04:43:14;;;;;;;8.18;5.10;;;;;;;;;;4997386;28;20115;-47
2023/08/01 04:45:39;;;;;;;8.13;5.43;;;;;;;;;;4980703;28;20097;-46
2023/08/01 04:48:04;;;;;;;8.90;5.57;;;;;;;;;;4976683;28;20015;-50
2023/08/01 04:50:30;;;;;;;10.95;5.22;;;;;;;;;;4972717;28;20038;-45
2023/08/01 04:52:55;;;;;;;9.27;5.68;;;;;;;;;;4983455;28;20026;-48
2023/08/01 04:55:21;;;;;;;7.85;5.05;;;;;;;;;;4996416;28;20479;-44
2023/08/01 04:57:46;;;;;;;11.68;5.50;;;;;;;;;;4997558;28;20030;-47
2023/08/01 05:00:12;;;;;;;9.80;5.13;;;;;;;;;;4996471;28;20034;-46
2023/08/01 05:02:37;;;;;;;6.07;5.20;;;;;;;;;;4995110;28;20022;-45
2023/08/01 05:05:03;;;;;;;15.90;5.25;;;;;;;;;;4996611;28;20046;-44
2023/08/01 05:07:29;;;;;;;8.82;5.07;;;;;;;;;;4997203;28;20030;-48
2023/08/01 05:09:55;;;;;;;13.57;5.35;;;;;;;;;;4994389;28;20408;-49
2023/08/01 05:12:20;;;;;;;10.43;5.43;;;;;;;;;;4993588;28;20030;-46
2023/08/01 05:14:45;;;;;;;7.43;5.28;;;;;;;;;;4995955;28;20038;-43
2023/08/01 05:17:11;;;;;;;8.88;5.30;;;;;;;;;;4986541;28;20030;-49
2023/08/01 05:19:36;;;;;;;9.20;5.00;;;;;;;;;;4996459;28;20027;-45
2023/08/01 05:22:02;;;;;;;11.40;5.20;;;;;;;;;;4994429;28;20035;-50
2023/08/01 05:24:27;;;;;;;11.18;5.78;;;;;;;;;;4996492;28;20599;-47
2023/08/01 05:26:53;;;;;;;8.63;5.88;;;;;;;;;;4994586;28;20038;-50
2023/08/01 05:29:18;;;;;;;11.25;5.38;;;;;;;;;;4978276;28;20126;-48
2023/08/01 05:31:44;;;;;;;7.38;5.32;;;;;;;;;;4992779;28;20050;-49
2023/08/01 05:34:09;;;;;;;12.63;5.78;;;;;;;;;;4996923;28;20033;-46
2023/08/01 05:36:35;;;;;;;9.50;5.10;;;;;;;;;;4994515;28;20050;-48
2023/08/01 05:39:00;;;;;;;8.38;5.43;;;;;;;;;;4994203;28;20467;-46
2023/08/01 05:41:26;;;;;;;9.80;5.85;;;;;;;;;;4989335;28;20069;-50
2023/08/01 05:43:52;;;;;;;11.15;5.38;;;;;;;;;;4987069;28;20037;-47
2023/08/01 05:46:18;;;;;;;12.80;5.35;;;;;;;;;;4993742;28;20034;-48
2023/08/01 05:48:43;;;;;;;7.18;4.95;;;;;;;;;;4993623;28;20558;-46
2023/08/01 05:51:09;;;;;;;7.10;5.00;;;;;;;;;;4994200;28;20046;-49
2023/08/01 05:53:34;;;;;;;13.57;5.45;;;;;;;;;;4978832;28;20080;-46
2023/08/01 05:55:59;;;;;;;11.07;5.03;;;;;;;;;;4983906;28;20042;-45
2023/08/01 05:58:25;;;;;;;8.35;4.65;;;;;;;;;;4996095;28;20027;-44
2023/08/01 06:00:50;;;;;;;11.52;5.40;;;;;;;;;;4993667;28;20102;-45
2023/08/01 06:03:16;;;;;;;6.15;4.85;;;;;;;;;;4995123;28;20127;-45
2023/08/01 06:05:42;;;;;;;6.15;4.72;;;;;;;;;;4983910;28;20039;-44
2023/08/01 06:08:08;;;;;;;8.32;4.60;;;;;;;;;;4983280;28;20049;-47
2023/08/01 06:10:34;;;;;;;8.90;5.10;;;;;;;;;;4994561;28;20057;-45
2023/08/01 06:13:00;;;;;;;9.73;4.97;;;;;;;;;;4995218;28;20053;-47
2023/08/01 06:15:25;;;;;;;7.22;5.20;;;;;;;;;;4985863;28;20034;-45
2023/08/01 06:17:50;;;;;;;8.18;5.10;;;;;;;;;;4993364;28;20543;-45
2023/08/01 06:20:16;;;;;;;8.07;5.25;;;;;;;;;;4992823;28;20318;-45
2023/08/01 06:22:42;;;;;;;14.18;4.55;;;;;;;;;;4996610;28;20058;-44
2023/08/01 06:25:08;;;;;;;8.05;4.88;;;;;;;;;;5000499;28;20088;-47
2023/08/01 06:27:33;;;;;;;10.65;4.68;;;;;;;;;;4998491;28;20051;-45
2023/08/01 06:29:59;;;;;;;10.27;4.97;;;;;;;;;;4998000;28;20042;-49
2023/08/01 06:32:25;;;;;;;11.50;5.20;;;;;;;;;;5000016;28;20038;-44
2023/08/01 06:34:50;;;;;;;8.13;4.65;;;;;;;;;;4991713;28;20046;-45
2023/08/01 06:37:15;;;;;;;10.45;5.15;;;;;;;;;;4989246;28;20059;-46
2023/08/01 06:39:41;;;;;;;11.15;5.22;;;;;;;;;;4995443;28;20026;-44
2023/08/01 06:42:06;;;;;;;10.00;4.57;;;;;;;;;;4998246;28;20039;-46
2023/08/01 06:44:32;;;;;;;10.93;4.70;;;;;;;;;;4998410;28;20045;-48
2023/08/01 06:46:57;;;;;;;7.78;4.60;;;;;;;;;;4997684;28;20050;-46
2023/08/01 06:49:23;;;;;;;11.38;4.80;;;;;;;;;;4998264;28;20022;-49
2023/08/01 06:51:48;;;;;;;9.07;4.32;;;;;;;;;;4998793;28;20046;-48
2023/08/01 06:54:14;;;;;;;7.25;4.65;;;;;;;;;;4998164;28;20030;-50
2023/08/01 06:56:39;;;;;;;5.50;4.20;;;;;;;;;;4997977;28;20048;-44
2023/08/01 06:59:05;;;;;;;6.65;4.65;;;;;;;;;;4985905;28;20113;-47
2023/08/01 07:01:30;;;;;;;6.03;4.45;;;;;;;;;;4998274;28;20104;-49
2023/08/01 07:03:56;;;;;;;7.53;4.28;;;;;;;;;;4996167;28;20076;-47
2023/08/01 07:06:23;;;;;;;9.63;4.80;;;;;;;;;;4998470;28;20049;-49
2023/08/01 07:08:49;;;;;;;6.57;4.22;;;;;;;;;;4995766;28;20034;-49
2023/08/01 07:11:14;;;;;;;8.38;4.00;;;;;;;;;;4997490;28;20049;-47
2023/08/01 07:13:39;;;;;;;10.18;4.13;;;;;;;;;;4991388;28;20018;-50
2023/08/01 07:16:05;;;;;;;6.63;3.33;;;;;;;;;;4981215;28;20034;-48
2023/08/01 07:18:30;;;;;;;7.65;4.07;;;;;;;;;;4978690;28;20023;-48
2023/08/01 07:21:03;;;;;;;11.25;3.92;;;;;;;;;;4996082;28;20066;-47
2023/08/01 07:23:29;;;;;;;4.00;3.38;;;;;;;;;;4997751;28;20085;-47
2023/08/01 07:25:54;;;;;;;9.07;4.00;;;;;;;;;;4988719;28;20038;-46
2023/08/01 07:28:20;;;;;;;8.75;4.15;;;;;;;;;;4991715;28;20030;-46
2023/08/01 07:30:45;;;;;;;5.93;3.50;;;;;;;;;;4989598;28;20057;-44
2023/08/01 07:33:10;;;;;;;8.05;3.28;;;;;;;;;;4991140;28;20110;-47
2023/08/01 07:35:36;;;;;;;3.72;2.70;;;;;;;;;;4985107;28;20117;-49
2023/08/01 07:38:01;;;;;;;6.50;3.05;;;;;;;;;;4995076;28;20033;-47
2023/08/01 07:40:27;;;;;;;5.28;2.97;;;;;;;;;;4995862;28;20038;-49
2023/08/01 07:42:52;;;;;;;8.77;3.08;;;;;;;;;;4986884;28;20036;-50
2023/08/01 07:45:19;;;;;;;7.18;2.90;;;;;;;;;;4996623;28;20392;-47
2023/08/01 07:47:44;;;;;;;10.80;2.90;;;;;;;;;;4998155;28;20034;-50
2023/08/01 07:50:10;;;;;;;5.80;2.80;;;;;;;;;;4993733;28;20089;-47
2023/08/01 07:52:36;;;;;;;7.57;2.90;;;;;;;;;;4995063;28;20109;-49
2023/08/01 07:55:01;;;;;;;3.33;2.75;;;;;;;;;;4996680;28;20042;-46
2023/08/01 07:57:27;;;;;;;5.63;2.97;;;;;;;;;;4990964;28;20152;-49
2023/08/01 07:59:52;;;;;;;6.28;3.15;;;;;;;;;;5004398;28;20034;-51
2023/08/01 08:02:18;;;;;;;7.22;3.10;;;;;;;;;;4989700;28;20172;-51
2023/08/01 08:04:43;;;;;;;2.97;2.50;;;;;;;;;;4992258;28;20042;-46
2023/08/01 08:07:08;;;;;;;3.00;2.60;;;;;;;;;;4996673;28;20034;-48
2023/08/01 08:09:34;;;;;;;8.52;3.08;;;;;;;;;;4995108;28;20057;-51
2023/08/01 08:11:59;;;;;;;3.90;2.80;;;;;;;;;;4983555;28;20051;-48
2023/08/01 08:14:25;;;;;;;3.70;2.70;;;;;;;;;;4997195;28;20109;-46
2023/08/01 08:16:51;;;;;;;4.38;2.80;;;;;;;;;;4994842;28;20057;-51
2023/08/01 08:19:16;;;;;;;3.67;2.65;;;;;;;;;;4997763;28;20443;-50
2023/08/01 08:21:42;;;;;;;3.50;2.67;;;;;;;;;;4996642;28;20034;-47
2023/08/01 08:24:07;;;;;;;3.50;2.72;;;;;;;;;;4996541;28;20069;-50
2023/08/01 08:26:37;;;;;;;4.47;2.60;;;;;;;;;;4997268;28;20535;-48
2023/08/01 08:29:02;;;;;;;8.88;2.78;;;;;;;;;;4973768;28;20397;-52
2023/08/01 08:31:28;;;;;;;8.30;2.85;;;;;;;;;;4996459;28;20038;-50
2023/08/01 08:33:53;;;;;;;4.38;2.67;;;;;;;;;;4998122;28;20113;-47
2023/08/01 08:36:19;;;;;;;9.25;2.85;;;;;;;;;;4996035;28;20074;-49
2023/08/01 08:38:44;;;;;;;3.83;2.90;;;;;;;;;;4991943;28;20037;-45
2023/08/01 08:41:13;;;;;;;3.28;2.80;;;;;;;;;;4993234;28;20035;-46
2023/08/01 08:43:40;;;;;;;7.35;2.58;;;;;;;;;;4995782;28;20033;-49
2023/08/01 08:46:08;;;;;;;6.10;3.05;;;;;;;;;;4985022;28;20106;-47
2023/08/01 08:48:33;;;;;;;2.78;2.55;;;;;;;;;;4995779;28;20037;-47
2023/08/01 08:51:00;;;;;;;6.82;2.80;;;;;;;;;;4982600;28;20397;-46
2023/08/01 08:53:26;;;;;;;4.78;2.67;;;;;;;;;;4986198;28;20481;-49
2023/08/01 08:55:52;;;;;;;5.38;2.90;;;;;;;;;;4992068;28;20039;-48
2023/08/01 08:58:18;;;;;;;3.35;2.90;;;;;;;;;;4985477;28;20097;-47
2023/08/01 09:00:44;;;;;;;5.03;2.78;;;;;;;;;;4988705;28;20045;-46
2023/08/01 09:03:09;;;;;;;6.50;3.20;;;;;;;;;;4994052;28;20027;-46
2023/08/01 09:05:44;;;;;;;3.47;2.80;;;;;;;;;;4982966;28;20408;-45
2023/08/01 09:08:19;;;;;;;10.77;2.90;;;;;;;;;;5003615;28;20109;-46
2023/08/01 09:10:45;;;;;;;5.97;2.67;;;;;;;;;;4989660;28;20461;-49
2023/08/01 09:13:11;;;;;;;3.35;2.88;;;;;;;;;;4996310;28;20033;-49
2023/08/01 09:15:37;;;;;;;9.43;3.22;;;;;;;;;;4984714;28;20102;-45
2023/08/01 09:18:06;;;;;;;12.32;3.15;;;;;;;;;;4986697;28;20042;-47
2023/08/01 09:20:44;;;;;;;4.68;2.92;;;;;;;;;;4993373;28;20476;-51
2023/08/01 09:23:13;;;;;;;4.15;2.70;;;;;;;;;;4991831;28;20042;-49
2023/08/01 09:25:39;;;;;;;5.03;2.90;;;;;;;;;;4992106;28;20105;-46
2023/08/01 09:28:18;;;;;;;9.10;3.05;;;;;;;;;;4995909;28;20574;-46
2023/08/01 09:30:55;;;;;;;6.38;3.60;;;;;;;;;;4997635;28;20080;-48
2023/08/01 09:33:21;;;;;;;7.55;3.30;;;;;;;;;;4995585;28;20074;-48
2023/08/01 09:35:49;;;;;;;3.50;3.00;;;;;;;;;;4979894;28;20156;-50
2023/08/01 09:38:16;;;;;;;7.13;3.22;;;;;;;;;;4981340;28;20034;-50
2023/08/01 09:40:42;;;;;;;3.20;2.90;;;;;;;;;;4995399;28;20030;-49
2023/08/01 09:43:10;;;;;;;7.20;3.05;;;;;;;;;;4996422;28;20046;-49
2023/08/01 09:45:36;;;;;;;5.15;2.92;;;;;;;;;;4996336;28;20034;-48
2023/08/01 09:48:01;;;;;;;8.25;3.13;;;;;;;;;;4981951;28;20066;-48
2023/08/01 09:50:27;;;;;;;5.78;3.35;;;;;;;;;;4989319;28;20451;-50
2023/08/01 09:52:52;;;;;;;9.57;3.25;;;;;;;;;;4989041;28;20504;-51
2023/08/01 09:55:34;;;;;;;11.73;3.58;;;;;;;;;;4994850;28;20546;-47
2023/08/01 09:58:00;;;;;;;;;;;;;;;;;;4998868;28;20104;-45
2023/08/01 10:00:27;;;;;;;6.10;3.13;;;;;;;;;;5000855;28;19917;-50
2023/08/01 10:02:54;;;;;;;5.63;3.40;;;;;;;;;;5002482;28;20046;-48
2023/08/01 10:05:21;;;;;;;5.45;3.10;;;;;;;;;;5001473;28;20606;-48
2023/08/01 10:07:48;;;;;;;7.68;3.30;;;;;;;;;;5001674;28;20574;-46
2023/08/01 10:10:15;;;;;;;4.57;3.47;;;;;;;;;;5001019;28;20036;-50
2023/08/01 10:12:48;;;;;;;11.45;3.60;;;;;;;;;;4991443;28;20110;-52
2023/08/01 10:15:15;;;;;;;7.03;3.53;;;;;;;;;;4974603;28;20034;-48
2023/08/01 10:17:41;;;;;;;6.90;3.65;;;;;;;;;;4991093;28;20500;-49
2023/08/01 10:20:07;;;;;;;7.22;3.53;;;;;;;;;;4997277;28;20075;-50
2023/08/01 10:22:34;;;;;;;5.18;3.80;;;;;;;;;;4995147;28;20065;-49
2023/08/01 10:25:00;;;;;;;8.02;3.72;;;;;;;;;;4995240;28;20031;-45
2023/08/01 10:27:25;;;;;;;6.20;3.25;;;;;;;;;;4992616;28;20042;-48
2023/08/01 10:29:58;;;;;;;7.10;3.97;;;;;;;;;;4998555;28;20019;-47
2023/08/01 10:32:35;;;;;;;5.40;3.60;;;;;;;;;;4990345;28;20042;-49
2023/08/01 10:35:01;;;;;;;11.82;3.88;;;;;;;;;;5002611;28;20030;-48
2023/08/01 10:37:38;;;;;;;8.52;4.38;;;;;;;;;;4995895;28;20066;-48
2023/08/01 10:40:04;;;;;;;13.00;4.22;;;;;;;;;;4982163;28;20500;-52
2023/08/01 10:42:45;;;;;;;11.43;3.92;;;;;;;;;;4995256;28;20038;-51
2023/08/01 10:45:25;;;;;;;9.00;4.07;;;;;;;;;;5000984;28;20034;-52
2023/08/01 10:47:51;;;;;;;4.43;3.70;;;;;;;;;;5002093;28;20035;-51
2023/08/01 10:50:18;;;;;;;10.20;4.15;;;;;;;;;;5002496;28;20699;-46
2023/08/01 10:52:44;;;;;;;9.40;4.50;;;;;;;;;;5000214;28;20039;-50
2023/08/01 10:55:10;;;;;;;5.72;3.90;;;;;;;;;;4997440;28;20031;-49
2023/08/01 10:57:38;;;;;;;8.13;4.40;;;;;;;;;;4999552;28;20062;-49
2023/08/01 11:00:09;;;;;;;5.95;4.00;;;;;;;;;;5001177;28;20022;-47
2023/08/01 11:02:35;;;;;;;4.13;3.63;;;;;;;;;;4999726;28;20034;-47
2023/08/01 11:05:07;;;;;;;9.52;4.10;;;;;;;;;;5002165;28;20113;-50
2023/08/01 11:07:33;;;;;;;9.77;3.97;;;;;;;;;;5000278;28;20474;-45
2023/08/01 11:10:07;;;;;;;8.85;3.88;;;;;;;;;;4998257;28;20022;-48
2023/08/01 11:12:42;;;;;;;8.02;4.13;;;;;;;;;;4999297;28;20519;-49
2023/08/01 11:15:10;;;;;;;11.55;3.70;;;;;;;;;;4997732;28;20041;-45
2023/08/01 11:17:39;;;;;;;7.32;3.97;;;;;;;;;;4996727;28;20046;-48
2023/08/01 11:20:10;;;;;;;7.47;3.80;;;;;;;;;;4987497;28;20058;-48
2023/08/01 11:22:49;;;;;;;3.90;3.50;;;;;;;;;;4996420;28;20042;-44
2023/08/01 11:25:14;;;;;;;6.88;4.00;;;;;;;;;;4996072;28;20026;-46
2023/08/01 11:27:40;;;;;;;10.50;3.47;;;;;;;;;;4996736;28;20031;-47
2023/08/01 11:30:06;;;;;;;7.38;3.83;;;;;;;;;;4985862;28;20026;-47
2023/08/01 11:32:36;;;;;;;6.05;3.83;;;;;;;;;;4994851;28;20042;-47
2023/08/01 11:35:02;;;;;;;8.85;3.47;;;;;;;;;;4999180;28;20082;-46
2023/08/01 11:37:28;;;;;;;4.95;3.25;;;;;;;;;;4996325;28;20583;-45
2023/08/01 11:39:54;;;;;;;6.65;3.13;;;;;;;;;;4998344;28;20038;-46
2023/08/01 11:42:20;;;;;;;4.03;3.65;;;;;;;;;;4997158;28;20037;-46
2023/08/01 11:44:45;;;;;;;7.68;3.47;;;;;;;;;;4996089;28;20042;-47
2023/08/01 11:47:15;;;;;;;6.70;3.67;;;;;;;;;;4998824;28;20054;-45
2023/08/01 11:49:48;;;;;;;4.72;3.38;;;;;;;;;;4998520;28;20053;-46
2023/08/01 11:52:27;;;;;;;4.60;3.33;;;;;;;;;;4995466;28;20069;-46
2023/08/01 11:54:54;;;;;;;8.43;3.63;;;;;;;;;;4997211;28;20085;-47
2023/08/01 11:57:21;;;;;;;4.38;2.80;;;;;;;;;;4996888;28;20034;-45
2023/08/01 11:59:48;;;;;;;7.97;4.03;;;;;;;;;;4985202;28;20682;-45
2023/08/01 12:02:32;;;;;;;6.38;3.42;;;;;;;;;;4995704;28;20153;-46
2023/08/01 12:04:58;;;;;;;7.07;3.28;;;;;;;;;;4979378;28;20374;-45
2023/08/01 12:07:26;;;;;;;8.75;3.35;;;;;;;;;;4987388;28;20046;-47
2023/08/01 12:10:00;;;;;;;2.85;2.60;;;;;;;;;;4994288;28;20034;-50
2023/08/01 12:12:29;;;;;;;6.25;3.20;;;;;;;;;;4995826;28;20042;-48
2023/08/01 12:14:55;;;;;;;4.97;3.30;;;;;;;;;;4997724;28;20030;-50
2023/08/01 12:17:22;;;;;;;3.60;3.30;;;;;;;;;;4995165;28;20056;-45
2023/08/01 12:19:47;;;;;;;3.00;2.70;;;;;;;;;;4989485;28;20476;-51
2023/08/01 12:22:14;;;;;;;6.57;3.33;;;;;;;;;;4996794;28;20096;-50
2023/08/01 12:24:39;;;;;;;3.53;2.97;;;;;;;;;;4995868;28;20505;-48
2023/08/01 12:27:09;;;;;;;4.28;3.17;;;;;;;;;;4997032;28;20048;-48
2023/08/01 12:29:35;;;;;;;3.75;2.95;;;;;;;;;;4996622;28;20030;-51
2023/08/01 12:32:06;;;;;;;4.50;2.80;;;;;;;;;;4997513;28;20026;-49
2023/08/01 12:34:32;;;;;;;;;;;;;;;;;;4998154;28;20562;-48
2023/08/01 12:36:57;;;;;;;4.13;2.88;;;;;;;;;;4997376;28;19965;-46
2023/08/01 12:39:25;;;;;;;7.50;2.90;;;;;;;;;;4994569;28;20400;-46
2023/08/01 12:41:50;;;;;;;3.05;2.72;;;;;;;;;;4997280;28;20034;-48
2023/08/01 12:44:17;;;;;;;3.50;2.42;;;;;;;;;;4997897;28;20044;-47
2023/08/01 12:46:43;;;;;;;8.23;2.30;;;;;;;;;;4996294;28;20081;-48
2023/08/01 12:49:08;;;;;;;9.52;2.60;;;;;;;;;;4996384;28;20034;-48
2023/08/01 12:51:33;;;;;;;3.38;2.70;;;;;;;;;;4963869;28;20402;-48
2023/08/01 12:53:59;;;;;;;2.83;2.55;;;;;;;;;;4996890;28;20035;-45
2023/08/01 12:56:24;;;;;;;4.93;2.63;;;;;;;;;;4994588;28;20034;-48
2023/08/01 12:58:50;;;;;;;5.22;2.50;;;;;;;;;;4978125;28;20042;-46
2023/08/01 13:01:15;;;;;;;3.28;2.60;;;;;;;;;;4992519;28;20026;-45
2023/08/01 13:03:41;;;;;;;5.68;2.72;;;;;;;;;;4994462;28;20527;-46
2023/08/01 13:06:06;;;;;;;9.70;2.53;;;;;;;;;;4997363;28;20036;-46
2023/08/01 13:08:32;;;;;;;5.35;2.45;;;;;;;;;;4993694;28;20382;-47
2023/08/01 13:11:00;;;;;;;4.07;2.90;;;;;;;;;;4991176;28;20097;-50
2023/08/01 13:13:25;;;;;;;3.13;2.50;;;;;;;;;;4979903;28;20549;-48
2023/08/01 13:15:51;;;;;;;2.47;2.28;;;;;;;;;;4992359;28;20129;-49
2023/08/01 13:18:17;;;;;;;2.97;2.05;;;;;;;;;;4976329;28;20066;-47
2023/08/01 13:20:43;;;;;;;2.20;2.00;;;;;;;;;;5005924;28;20034;-50
2023/08/01 13:23:09;;;;;;;3.05;1.83;;;;;;;;;;4995620;28;20050;-46
2023/08/01 13:25:34;;;;;;;3.67;1.80;;;;;;;;;;4992911;28;20026;-48
2023/08/01 13:27:59;;;;;;;2.30;2.00;;;;;;;;;;4996190;28;20042;-46
2023/08/01 13:30:25;;;;;;;4.40;1.75;;;;;;;;;;4995884;28;20564;-49
2023/08/01 13:32:50;;;;;;;4.50;1.50;;;;;;;;;;4995326;28;20488;-47
2023/08/01 13:35:16;;;;;;;4.50;1.35;;;;;;;;;;4976717;28;20042;-47
2023/08/01 13:37:41;;;;;;;6.70;1.40;;;;;;;;;;4995129;28;20038;-45
2023/08/01 13:40:08;;;;;;;2.22;1.58;;;;;;;;;;4995518;28;20087;-49
2023/08/01 13:42:33;;;;;;;1.70;1.45;;;;;;;;;;4995429;28;20046;-50
2023/08/01 13:44:59;;;;;;;1.63;1.52;;;;;;;;;;4965377;28;20392;-46
2023/08/01 13:47:24;;;;;;;2.85;1.60;;;;;;;;;;4995583;28;20570;-46
2023/08/01 13:49:50;;;;;;;5.45;1.70;;;;;;;;;;4996265;28;20030;-48
2023/08/01 13:52:15;;;;;;;1.58;1.48;;;;;;;;;;4994443;28;20042;-45
2023/08/01 13:54:41;;;;;;;2.30;1.30;;;;;;;;;;4996711;28;20057;-47
2023/08/01 13:57:06;;;;;;;2.25;1.58;;;;;;;;;;4973715;28;20064;-44
2023/08/01 13:59:32;;;;;;;2.55;1.70;;;;;;;;;;4994828;28;20109;-51
2023/08/01 14:01:57;;;;;;;7.40;1.58;;;;;;;;;;4997234;28;20029;-46
2023/08/01 14:04:23;;;;;;;2.67;1.38;;;;;;;;;;4994285;28;20455;-45
2023/08/01 14:06:48;;;;;;;2.80;1.52;;;;;;;;;;4995366;28;20375;-48
2023/08/01 14:09:14;;;;;;;2.38;1.30;;;;;;;;;;4995902;28;20412;-49
2023/08/01 14:11:40;;;;;;;2.13;1.10;;;;;;;;;;4966596;28;20031;-50
2023/08/01 14:14:05;;;;;;;1.30;1.20;;;;;;;;;;4991234;28;20038;-45
2023/08/01 14:16:31;;;;;;;9.18;1.13;;;;;;;;;;4990977;28;20031;-52
2023/08/01 14:18:58;;;;;;;3.53;1.50;;;;;;;;;;4994482;28;20042;-48
2023/08/01 14:21:23;;;;;;;1.17;1.08;;;;;;;;;;4994303;28;20052;-47
2023/08/01 14:23:48;;;;;;;1.50;0.95;;;;;;;;;;4990924;28;20507;-49
2023/08/01 14:26:14;;;;;;;3.08;0.80;;;;;;;;;;4973190;28;20125;-45
2023/08/01 14:28:39;;;;;;;5.75;0.80;;;;;;;;;;4993660;28;20042;-45
2023/08/01 14:31:05;;;;;;;1.50;0.73;;;;;;;;;;4994621;28;20030;-47
2023/08/01 14:33:30;;;;;;;3.45;0.70;;;;;;;;;;4996457;28;20578;-46
2023/08/01 14:35:57;;;;;;;3.60;0.70;;;;;;;;;;4994543;28;20058;-47